Time;durP1;ratioP1;P1;durP2;ratioP2;P2;SDS_P1;SDS_P2;PMS_P1;PMS_P2;Temp;Humidity;BMP_temperature;BMP_pressure;BME280_temperature;BME280_humidity;BME280_pressure;Samples;Min_cycle;Max_cycle;Signal;HPM_P1;HPM_P2
2022/04/20 00:02:04;;;;;;;5.72;5.00;;;10.70;99.40;;;;;;5000741;28;20213;-76
2022/04/20 00:04:31;;;;;;;5.78;5.25;;;10.70;99.40;;;;;;4997794;28;20282;-77
2022/04/20 00:07:00;;;;;;;5.30;4.80;;;10.60;99.60;;;;;;4997188;28;20201;-77
2022/04/20 00:09:27;;;;;;;5.10;4.70;;;10.60;99.80;;;;;;4998161;28;20323;-77
2022/04/20 00:11:54;;;;;;;5.32;4.82;;;10.50;99.90;;;;;;5000949;28;20225;-77
2022/04/20 00:14:21;;;;;;;5.40;4.85;;;10.50;99.90;;;;;;4995088;28;20228;-76
2022/04/20 00:16:48;;;;;;;5.35;4.68;;;10.50;99.90;;;;;;4996528;28;20201;-77
2022/04/20 00:19:15;;;;;;;5.00;4.60;;;10.40;99.90;;;;;;4995550;28;20236;-77
2022/04/20 00:21:42;;;;;;;5.65;5.05;;;10.40;99.90;;;;;;4999057;28;20208;-77
2022/04/20 00:24:10;;;;;;;5.38;4.97;;;10.40;99.90;;;;;;5001664;28;20287;-76
2022/04/20 00:26:37;;;;;;;5.22;4.80;;;10.30;99.90;;;;;;5000738;28;20760;-77
2022/04/20 00:29:04;;;;;;;5.72;5.22;;;10.20;99.90;;;;;;4996416;28;24082;-76
2022/04/20 00:31:31;;;;;;;4.78;4.38;;;10.20;99.90;;;;;;4995530;28;20196;-76
2022/04/20 00:33:58;;;;;;;4.80;4.40;;;10.10;99.90;;;;;;4996114;28;20197;-76
2022/04/20 00:36:25;;;;;;;5.53;5.05;;;10.10;99.90;;;;;;5002084;28;20204;-77
2022/04/20 00:38:52;;;;;;;5.43;4.93;;;10.10;99.90;;;;;;5000067;28;20200;-77
2022/04/20 00:41:20;;;;;;;5.88;5.13;;;10.10;99.90;;;;;;4999993;28;20273;-77
2022/04/20 00:43:48;;;;;;;5.72;5.22;;;10.00;99.90;;;;;;4998302;28;20283;-76
2022/04/20 00:46:16;;;;;;;14.00;5.15;;;10.00;99.90;;;;;;4996589;28;20275;-76
2022/04/20 00:48:43;;;;;;;6.60;5.93;;;9.90;99.90;;;;;;4997091;28;20204;-77
2022/04/20 00:51:10;;;;;;;6.68;6.07;;;9.80;99.90;;;;;;4998100;28;20805;-76
2022/04/20 00:53:37;;;;;;;5.90;5.30;;;9.70;99.90;;;;;;4994603;28;20204;-77
2022/04/20 00:56:05;;;;;;;6.05;5.45;;;9.70;99.90;;;;;;4997636;28;20227;-76
2022/04/20 00:58:34;;;;;;;5.97;5.45;;;9.60;99.90;;;;;;5000851;28;20255;-76
2022/04/20 01:01:02;;;;;;;5.75;5.25;;;9.60;99.90;;;;;;4994251;28;20221;-76
2022/04/20 01:03:29;;;;;;;5.18;4.78;;;9.60;99.90;;;;;;4997716;28;20215;-77
2022/04/20 01:05:56;;;;;;;5.75;5.25;;;9.60;99.90;;;;;;4998084;28;20212;-76
2022/04/20 01:08:24;;;;;;;5.15;4.72;;;9.60;99.90;;;;;;4998116;28;20659;-77
2022/04/20 01:10:51;;;;;;;5.38;4.88;;;9.60;99.90;;;;;;4998588;28;20232;-76
2022/04/20 01:13:18;;;;;;;6.90;6.20;;;9.50;99.90;;;;;;4998653;28;20254;-77
2022/04/20 01:15:46;;;;;;;6.55;5.45;;;9.50;99.90;;;;;;4996196;28;20224;-76
2022/04/20 01:18:14;;;;;;;5.90;5.32;;;9.50;99.90;;;;;;4995270;28;20575;-76
2022/04/20 01:20:43;;;;;;;5.80;5.20;;;9.40;99.90;;;;;;5000425;28;20308;-76
2022/04/20 01:23:11;;;;;;;5.13;4.72;;;9.40;99.90;;;;;;5003352;28;20201;-76
2022/04/20 01:25:38;;;;;;;7.20;6.50;;;9.40;99.90;;;;;;4996488;28;20231;-76
2022/04/20 01:28:06;;;;;;;7.97;7.25;;;9.30;99.90;;;;;;5000590;28;20231;-77
2022/04/20 01:30:33;;;;;;;8.73;6.63;;;9.30;99.90;;;;;;4994825;28;20415;-77
2022/04/20 01:33:01;;;;;;;7.00;6.05;;;9.30;99.90;;;;;;4998544;28;20189;-77
2022/04/20 01:35:28;;;;;;;5.93;5.43;;;9.30;99.90;;;;;;4995320;28;20303;-77
2022/04/20 01:37:56;;;;;;;5.43;4.93;;;9.40;99.90;;;;;;4999213;28;20204;-77
2022/04/20 01:40:24;;;;;;;5.10;4.70;;;9.40;99.90;;;;;;4996167;28;20767;-77
2022/04/20 01:42:51;;;;;;;5.97;5.47;;;9.50;99.90;;;;;;4997208;28;20197;-77
2022/04/20 01:45:18;;;;;;;5.82;5.30;;;9.60;99.90;;;;;;4995839;28;20225;-77
2022/04/20 01:47:45;;;;;;;6.50;5.85;;;9.60;99.90;;;;;;5002163;28;20200;-76
2022/04/20 01:50:12;;;;;;;7.20;6.50;;;9.50;99.90;;;;;;4999147;28;20299;-77
2022/04/20 01:52:39;;;;;;;7.78;7.05;;;9.40;99.90;;;;;;5000536;28;20200;-76
2022/04/20 01:55:09;;;;;;;8.35;7.65;;;9.40;99.90;;;;;;5002592;28;20228;-77
2022/04/20 01:57:35;;;;;;;6.95;6.35;;;9.50;99.90;;;;;;5001999;28;20208;-76
2022/04/20 02:00:04;;;;;;;6.70;6.10;;;9.50;99.90;;;;;;5001611;28;20283;-77
2022/04/20 02:02:36;;;;;;;7.45;6.75;;;9.60;99.90;;;;;;5000149;28;20197;-77
2022/04/20 02:05:04;;;;;;;5.78;5.30;;;9.60;99.90;;;;;;5001607;28;20255;-76
2022/04/20 02:07:32;;;;;;;6.43;5.82;;;9.60;99.90;;;;;;5002832;28;20284;-77
2022/04/20 02:09:59;;;;;;;6.95;6.30;;;9.60;99.90;;;;;;5005472;28;20577;-77
2022/04/20 02:12:27;;;;;;;6.60;5.93;;;9.50;99.90;;;;;;5001330;28;20208;-76
2022/04/20 02:14:55;;;;;;;7.07;6.38;;;9.40;99.90;;;;;;5002111;28;20701;-76
2022/04/20 02:17:22;;;;;;;7.28;6.65;;;9.40;99.90;;;;;;4998017;28;20243;-76
2022/04/20 02:19:49;;;;;;;6.47;5.88;;;9.40;99.90;;;;;;5000346;28;20236;-76
2022/04/20 02:22:17;;;;;;;6.68;5.97;;;9.30;99.90;;;;;;4999967;28;20201;-76
2022/04/20 02:24:44;;;;;;;6.03;5.53;;;9.40;99.90;;;;;;5003793;28;20235;-76
2022/04/20 02:27:11;;;;;;;7.25;6.55;;;9.40;99.90;;;;;;5000996;28;20219;-76
2022/04/20 02:29:40;;;;;;;6.65;6.05;;;9.30;99.90;;;;;;5001487;28;20232;-76
2022/04/20 02:32:09;;;;;;;8.52;7.18;;;9.30;99.90;;;;;;5003398;28;20287;-76
2022/04/20 02:34:36;;;;;;;9.23;8.43;;;9.20;99.90;;;;;;4998678;28;20829;-76
2022/04/20 02:37:04;;;;;;;9.88;8.98;;;9.20;99.90;;;;;;5003240;28;20268;-76
2022/04/20 02:39:31;;;;;;;8.25;7.45;;;9.30;99.90;;;;;;4998106;28;20666;-76
2022/04/20 02:41:59;;;;;;;7.22;6.63;;;9.30;99.90;;;;;;4998610;28;20877;-76
2022/04/20 02:44:26;;;;;;;6.75;6.15;;;9.30;99.90;;;;;;4999500;28;20278;-76
2022/04/20 02:46:55;;;;;;;7.53;6.82;;;9.30;99.90;;;;;;4999769;28;20209;-75
2022/04/20 02:49:22;;;;;;;7.32;6.68;;;9.30;99.90;;;;;;4998569;28;20217;-76
2022/04/20 02:51:49;;;;;;;7.47;6.88;;;9.30;99.90;;;;;;5002888;28;20204;-76
2022/04/20 02:54:16;;;;;;;7.80;6.75;;;9.20;99.90;;;;;;4997810;28;20647;-76
2022/04/20 02:56:43;;;;;;;7.03;6.25;;;9.10;99.90;;;;;;4999781;28;20655;-76
2022/04/20 02:59:10;;;;;;;6.80;6.20;;;9.10;99.90;;;;;;5001260;28;20229;-76
2022/04/20 03:01:37;;;;;;;8.88;7.97;;;9.10;99.90;;;;;;5001191;28;20233;-76
2022/04/20 03:04:06;;;;;;;7.70;7.10;;;9.10;99.90;;;;;;4998277;28;20280;-76
2022/04/20 03:06:33;;;;;;;7.13;6.43;;;9.00;99.90;;;;;;4999658;28;20706;-76
2022/04/20 03:09:00;;;;;;;6.80;6.20;;;9.10;99.90;;;;;;5001331;28;20668;-77
2022/04/20 03:11:28;;;;;;;7.32;6.65;;;9.10;99.90;;;;;;4997754;28;20221;-76
2022/04/20 03:13:56;;;;;;;7.18;6.57;;;9.10;99.90;;;;;;4997213;28;20200;-76
2022/04/20 03:16:23;;;;;;;10.25;9.30;;;9.10;99.90;;;;;;5000057;28;20219;-77
2022/04/20 03:18:51;;;;;;;8.05;7.20;;;9.20;99.90;;;;;;4998173;28;20207;-76
2022/04/20 03:21:19;;;;;;;7.78;7.07;;;9.20;99.90;;;;;;5001750;28;20648;-77
2022/04/20 03:23:46;;;;;;;8.20;6.43;;;9.20;99.90;;;;;;4997742;28;20200;-76
2022/04/20 03:26:13;;;;;;;7.18;6.57;;;9.20;99.90;;;;;;4997127;28;20220;-76
2022/04/20 03:28:40;;;;;;;13.07;6.53;;;9.20;99.90;;;;;;4998853;28;20205;-77
2022/04/20 03:31:07;;;;;;;7.50;6.80;;;9.20;99.90;;;;;;4995778;28;20221;-77
2022/04/20 03:33:34;;;;;;;7.05;6.40;;;9.20;99.90;;;;;;5001114;28;20217;-76
2022/04/20 03:36:01;;;;;;;6.55;5.95;;;9.20;99.90;;;;;;5001325;28;20216;-76
2022/04/20 03:38:31;;;;;;;6.88;6.18;;;9.10;99.90;;;;;;5000870;28;20634;-76
2022/04/20 03:40:58;;;;;;;5.97;5.47;;;9.10;99.90;;;;;;4998936;28;20217;-76
2022/04/20 03:43:25;;;;;;;7.05;6.35;;;9.10;99.90;;;;;;5034268;22;20549;-74
2022/04/20 03:45:52;;;;;;;7.03;6.35;;;9.20;99.90;;;;;;5035208;28;20313;-73
2022/04/20 03:48:19;;;;;;;7.95;7.25;;;9.10;99.90;;;;;;5036495;28;20211;-73
2022/04/20 03:50:46;;;;;;;7.90;7.20;;;9.10;99.90;;;;;;5033090;28;20222;-73
2022/04/20 03:53:13;;;;;;;8.15;7.35;;;9.00;99.90;;;;;;5033776;28;20241;-72
2022/04/20 03:55:43;;;;;;;9.23;8.40;;;8.90;99.90;;;;;;5036774;28;20231;-75
2022/04/20 03:58:10;;;;;;;10.40;9.50;;;8.80;99.90;;;;;;5039970;28;20202;-76
2022/04/20 04:00:37;;;;;;;8.77;8.00;;;8.80;99.90;;;;;;5037154;28;20219;-74
2022/04/20 04:03:04;;;;;;;8.27;7.45;;;8.80;99.90;;;;;;5038418;28;20792;-76
2022/04/20 04:05:32;;;;;;;9.32;8.52;;;8.90;99.90;;;;;;5035721;28;20649;-74
2022/04/20 04:07:59;;;;;;;11.55;10.55;;;8.90;99.90;;;;;;5037944;28;20588;-74
2022/04/20 04:10:26;;;;;;;11.98;10.88;;;9.00;99.90;;;;;;5033817;28;20227;-73
2022/04/20 04:12:55;;;;;;;11.23;10.27;;;9.00;99.90;;;;;;5037172;28;20218;-76
2022/04/20 04:15:22;;;;;;;14.23;12.82;;;9.10;99.90;;;;;;5041484;28;20219;-74
2022/04/20 04:17:54;;;;;;;11.07;10.00;;;9.00;99.90;;;;;;5041257;28;20401;-75
2022/04/20 04:20:21;;;;;;;9.40;8.60;;;8.90;99.90;;;;;;5020342;28;20693;-75
2022/04/20 04:22:49;;;;;;;9.15;8.27;;;8.90;99.90;;;;;;5038413;28;20222;-73
2022/04/20 04:25:17;;;;;;;8.90;8.05;;;8.90;99.90;;;;;;5036816;28;20235;-76
2022/04/20 04:27:44;;;;;;;9.05;8.25;;;8.80;99.90;;;;;;5040656;28;20203;-73
2022/04/20 04:30:13;;;;;;;9.40;8.45;;;8.80;99.90;;;;;;5038012;28;20223;-74
2022/04/20 04:32:41;;;;;;;8.90;8.05;;;8.90;99.90;;;;;;5036543;28;20774;-75
2022/04/20 04:35:09;;;;;;;10.32;9.43;;;8.80;99.90;;;;;;5028449;28;20192;-74
2022/04/20 04:37:36;;;;;;;9.00;8.20;;;8.80;99.90;;;;;;5033338;28;20278;-74
2022/04/20 04:40:03;;;;;;;9.57;8.68;;;8.90;99.90;;;;;;5038154;28;20199;-74
2022/04/20 04:42:30;;;;;;;12.10;10.82;;;8.90;99.90;;;;;;5039010;28;20230;-74
2022/04/20 04:48:36;;;;;;;10.70;9.60;;;8.90;99.90;;;;;;5035990;28;20226;-72
2022/04/20 04:50:30;;;;;;;9.80;8.82;;;8.90;99.90;;;;;;5041138;28;20241;-76
2022/04/20 04:52:57;;;;;;;10.35;9.45;;;8.90;99.90;;;;;;5037850;28;20219;-80
2022/04/20 04:55:24;;;;;;;9.45;8.65;;;8.90;99.90;;;;;;5032570;28;20705;-77
2022/04/20 04:57:51;;;;;;;9.90;9.00;;;8.80;99.90;;;;;;5038138;28;20199;-78
2022/04/20 05:00:19;;;;;;;8.65;7.85;;;8.80;99.90;;;;;;5037921;28;20219;-80
2022/04/20 05:02:47;;;;;;;8.27;7.47;;;8.90;99.90;;;;;;5038099;28;20231;-79
2022/04/20 05:05:14;;;;;;;9.88;8.10;;;9.00;99.90;;;;;;5039651;28;20214;-79
2022/04/20 05:07:41;;;;;;;9.75;8.85;;;9.10;99.90;;;;;;5036739;28;20200;-79
2022/04/20 05:10:09;;;;;;;8.60;7.90;;;9.30;99.90;;;;;;5036874;28;20203;-81
2022/04/20 05:12:36;;;;;;;7.68;7.07;;;9.40;99.90;;;;;;5033748;28;20219;-79
2022/04/20 05:15:03;;;;;;;9.05;8.15;;;9.60;99.90;;;;;;5034097;28;22320;-80
2022/04/20 05:17:30;;;;;;;10.32;9.35;;;9.80;99.90;;;;;;5035423;28;20245;-77
2022/04/20 05:19:59;;;;;;;10.68;9.75;;;9.90;99.90;;;;;;5037319;28;20222;-79
2022/04/20 05:22:26;;;;;;;9.50;8.65;;;9.90;99.90;;;;;;5040056;28;20245;-79
2022/04/20 05:24:53;;;;;;;9.57;8.70;;;10.00;99.90;;;;;;5038375;28;20199;-79
2022/04/20 05:27:20;;;;;;;9.95;9.05;;;10.10;99.90;;;;;;5040274;28;20376;-77
2022/04/20 05:29:47;;;;;;;8.88;8.18;;;10.00;99.90;;;;;;5044106;28;20199;-79
2022/04/20 05:32:14;;;;;;;10.15;9.25;;;10.10;99.90;;;;;;5038058;28;20226;-78
2022/04/20 05:34:41;;;;;;;14.45;8.40;;;10.20;99.90;;;;;;5036184;28;20195;-79
2022/04/20 05:42:47;;;;;;;7.82;7.18;;;10.50;99.90;;;;;;5001124;28;20238;-78
2022/04/20 05:45:14;;;;;;;9.70;8.80;;;10.60;99.90;;;;;;5038664;28;20238;-79
2022/04/20 05:47:41;;;;;;;9.48;8.68;;;10.70;99.90;;;;;;5035752;28;20226;-79
2022/04/20 05:50:08;;;;;;;8.90;8.10;;;10.70;99.90;;;;;;5037408;28;20202;-77
2022/04/20 05:52:37;;;;;;;7.60;6.90;;;10.60;99.90;;;;;;5018968;28;20228;-79
2022/04/20 05:55:05;;;;;;;8.05;7.00;;;10.70;99.90;;;;;;5022917;28;20207;-81
2022/04/20 05:57:33;;;;;;;8.15;7.43;;;10.70;99.90;;;;;;5026502;28;20328;-75
2022/04/20 06:00:00;;;;;;;7.72;7.07;;;10.70;99.90;;;;;;5032409;28;20229;-77
2022/04/20 06:02:27;;;;;;;9.00;7.20;;;10.90;99.90;;;;;;5031705;28;20222;-79
2022/04/20 06:04:54;;;;;;;8.25;7.35;;;10.80;99.90;;;;;;5038252;28;20214;-76
2022/04/20 06:07:21;;;;;;;9.23;8.43;;;10.80;99.90;;;;;;5028228;28;20410;-76
2022/04/20 06:09:50;;;;;;;9.32;8.43;;;10.70;99.90;;;;;;5033724;28;20221;-78
2022/04/20 06:12:17;;;;;;;8.85;7.95;;;10.70;99.90;;;;;;5030639;28;20230;-78
2022/04/20 06:14:44;;;;;;;8.77;7.50;;;10.80;99.90;;;;;;5030157;28;20200;-78
2022/04/20 06:17:11;;;;;;;6.80;6.20;;;11.10;99.90;;;;;;5035929;28;20242;-76
2022/04/20 06:19:38;;;;;;;7.50;6.82;;;11.30;99.90;;;;;;5026620;28;20681;-81
2022/04/20 06:22:05;;;;;;;6.88;6.28;;;11.30;99.90;;;;;;5027135;28;20272;-75
2022/04/20 06:24:32;;;;;;;7.00;6.25;;;11.30;99.90;;;;;;5026058;28;20214;-77
2022/04/20 06:27:01;;;;;;;7.47;6.75;;;11.30;99.90;;;;;;5028301;28;20233;-78
2022/04/20 06:29:28;;;;;;;7.75;6.22;;;11.20;99.90;;;;;;5027843;28;20196;-76
2022/04/20 06:31:55;;;;;;;6.93;6.25;;;11.20;99.90;;;;;;5028909;28;20288;-78
2022/04/20 06:34:22;;;;;;;7.47;6.78;;;11.10;99.90;;;;;;5027964;28;20207;-80
2022/04/20 06:36:49;;;;;;;8.40;7.00;;;11.10;99.90;;;;;;5026557;28;20215;-77
2022/04/20 06:39:16;;;;;;;7.43;6.82;;;11.10;99.90;;;;;;5025691;28;20199;-77
2022/04/20 06:41:43;;;;;;;8.32;7.53;;;11.40;99.90;;;;;;5025119;28;20230;-76
2022/04/20 06:44:11;;;;;;;7.90;7.15;;;11.60;99.90;;;;;;5026798;28;20928;-77
2022/04/20 06:46:38;;;;;;;8.88;7.45;;;11.70;99.90;;;;;;5028655;28;20235;-78
2022/04/20 06:49:06;;;;;;;7.38;6.63;;;11.90;99.90;;;;;;5027299;28;20743;-80
2022/04/20 06:58:31;;;;;;;9.52;7.88;;;12.20;99.90;;;;;;5027325;28;20222;-77
2022/04/20 06:59:51;;;;;;;8.98;8.07;;;12.60;99.90;;;;;;5027636;28;20272;-80
2022/04/20 07:02:18;;;;;;;7.60;6.90;;;12.40;99.90;;;;;;5029625;28;20326;-79
2022/04/20 07:04:45;;;;;;;8.68;7.78;;;12.30;99.90;;;;;;5031282;28;20213;-83
2022/04/20 07:07:12;;;;;;;7.55;6.85;;;12.10;99.90;;;;;;5028269;28;20231;-81
2022/04/20 07:09:39;;;;;;;7.53;6.82;;;11.90;99.90;;;;;;5030056;28;20203;-80
2022/04/20 07:12:07;;;;;;;7.72;7.07;;;12.00;99.90;;;;;;5026974;28;20231;-76
2022/04/20 07:14:34;;;;;;;7.78;7.05;;;12.00;99.90;;;;;;5024200;28;20627;-78
2022/04/20 07:17:03;;;;;;;8.68;7.10;;;12.20;99.90;;;;;;5026706;28;20305;-78
2022/04/20 07:19:30;;;;;;;7.82;7.05;;;12.60;99.90;;;;;;5027248;28;20225;-76
2022/04/20 07:21:57;;;;;;;8.15;7.28;;;12.60;99.90;;;;;;5030315;28;20236;-79
2022/04/20 07:24:24;;;;;;;8.95;7.57;;;12.80;99.90;;;;;;5030820;28;20200;-76
2022/04/20 07:26:51;;;;;;;8.40;7.63;;;12.90;99.90;;;;;;5030398;28;20235;-78
2022/04/20 07:29:18;;;;;;;7.57;6.88;;;13.00;99.90;;;;;;5029146;28;20207;-76
2022/04/20 07:31:46;;;;;;;8.00;7.20;;;13.40;99.90;;;;;;5033432;28;20235;-78
2022/04/20 07:34:16;;;;;;;8.98;8.13;;;13.90;99.90;;;;;;5029258;28;20266;-80
2022/04/20 07:36:43;;;;;;;8.60;7.70;;;14.00;99.90;;;;;;5032286;28;20219;-77
2022/04/20 07:39:10;;;;;;;8.05;7.25;;;14.30;99.90;;;;;;5038071;28;20195;-81
2022/04/20 07:41:39;;;;;;;12.88;9.00;;;14.30;99.90;;;;;;5034274;28;20215;-77
2022/04/20 07:44:06;;;;;;;10.85;8.55;;;14.50;99.90;;;;;;5034091;28;20655;-78
2022/04/20 07:46:33;;;;;;;10.38;8.73;;;14.80;99.90;;;;;;5033744;28;20227;-79
2022/04/20 07:50:18;;;;;;;10.23;9.32;;;15.00;99.90;;;;;;5033619;28;20202;-81
2022/04/20 07:51:50;;;;;;;9.07;8.20;;;15.10;99.90;;;;;;5041667;28;20295;-81
2022/04/20 07:54:17;;;;;;;10.43;8.07;;;15.20;99.90;;;;;;5039042;28;20220;-77
2022/04/20 07:56:44;;;;;;;11.18;8.02;;;15.20;99.90;;;;;;5035660;28;20266;-77
2022/04/20 07:59:11;;;;;;;9.80;8.02;;;15.30;99.90;;;;;;5030963;28;20204;-80
2022/04/20 08:01:38;;;;;;;10.95;7.72;;;15.30;99.90;;;;;;5031762;28;20250;-76
2022/04/20 08:04:06;;;;;;;9.65;8.85;;;15.40;99.90;;;;;;5036834;28;20234;-78
2022/04/20 08:06:35;;;;;;;9.80;8.27;;;15.30;99.90;;;;;;5030581;28;20255;-81
2022/04/20 08:09:03;;;;;;;9.88;8.73;;;15.40;99.90;;;;;;5035348;28;20199;-80
2022/04/20 08:11:31;;;;;;;9.48;8.57;;;15.50;99.90;;;;;;5029992;28;20246;-77
2022/04/20 08:14:14;;;;;;;9.63;8.63;;;15.40;99.90;;;;;;5031905;28;20219;-78
2022/04/20 08:16:43;;;;;;;10.35;8.30;;;15.50;99.90;;;;;;5028273;28;20319;-77
2022/04/20 08:19:11;;;;;;;9.98;8.80;;;15.60;99.90;;;;;;5029435;28;20565;-82
2022/04/20 08:21:38;;;;;;;10.73;9.38;;;15.60;99.90;;;;;;5031904;28;20223;-81
2022/04/20 08:24:07;;;;;;;10.63;9.63;;;15.60;99.90;;;;;;5033516;28;20221;-77
2022/04/20 08:26:34;;;;;;;9.85;8.93;;;15.60;99.90;;;;;;5027769;28;20226;-82
2022/04/20 08:29:02;;;;;;;10.40;9.40;;;15.70;99.90;;;;;;5033112;28;20207;-82
2022/04/20 08:31:30;;;;;;;10.73;9.55;;;15.70;99.90;;;;;;5035798;28;20321;-81
2022/04/20 08:33:57;;;;;;;9.77;8.85;;;15.50;99.90;;;;;;5032239;28;20223;-81
2022/04/20 08:36:24;;;;;;;10.35;9.40;;;15.60;99.90;;;;;;5035222;28;20227;-79
2022/04/20 08:38:51;;;;;;;10.82;9.02;;;15.60;99.90;;;;;;5032812;28;21121;-77
2022/04/20 08:41:19;;;;;;;10.45;9.45;;;15.60;99.90;;;;;;5032246;28;20223;-79
2022/04/20 08:43:46;;;;;;;11.93;9.48;;;15.70;99.90;;;;;;5035158;28;20410;-80
2022/04/20 08:46:16;;;;;;;9.85;8.98;;;15.70;99.90;;;;;;5037640;28;20338;-88
2022/04/20 08:48:43;;;;;;;13.07;9.85;;;15.60;99.90;;;;;;5036183;28;20206;-80
2022/04/20 08:51:10;;;;;;;10.23;9.13;;;15.40;99.90;;;;;;5031935;28;20199;-80
2022/04/20 08:53:38;;;;;;;10.52;9.52;;;15.50;99.90;;;;;;5031012;28;20233;-79
2022/04/20 08:58:53;;;;;;;11.20;10.10;;;15.40;99.90;;;;;;5032297;28;20904;-79
2022/04/20 09:01:20;;;;;;;10.13;9.23;;;15.40;99.90;;;;;;5033744;28;20224;-77
2022/04/20 09:03:47;;;;;;;10.73;9.43;;;15.50;99.90;;;;;;5036285;28;20697;-83
2022/04/20 09:06:15;;;;;;;11.07;9.43;;;15.70;99.90;;;;;;5034088;28;20241;-79
2022/04/20 09:08:43;;;;;;;10.32;8.70;;;15.80;99.90;;;;;;5032759;28;20206;-74
2022/04/20 09:11:10;;;;;;;13.93;9.23;;;15.90;99.90;;;;;;5031635;28;20204;-80
2022/04/20 09:13:41;;;;;;;10.43;9.40;;;15.80;99.90;;;;;;5031551;28;20211;-75
2022/04/20 09:16:11;;;;;;;10.63;9.55;;;15.50;99.90;;;;;;5025923;28;21419;-80
2022/04/20 09:18:40;;;;;;;15.05;9.13;;;15.10;99.90;;;;;;5031195;28;20203;-79
2022/04/20 09:21:08;;;;;;;10.05;9.02;;;14.80;99.90;;;;;;5026606;28;20218;-74
2022/04/20 09:23:35;;;;;;;10.35;9.35;;;14.50;99.90;;;;;;5031820;28;20215;-81
2022/04/20 09:26:10;;;;;;;11.40;9.20;;;14.50;99.90;;;;;;5029847;28;20216;-76
2022/04/20 09:28:39;;;;;;;12.93;9.65;;;14.70;99.90;;;;;;5031668;28;20219;-78
2022/04/20 09:31:07;;;;;;;9.77;8.93;;;14.60;99.90;;;;;;5032469;28;20935;-77
2022/04/20 09:33:46;;;;;;;10.35;9.25;;;14.70;99.90;;;;;;5029355;28;20222;-76
2022/04/20 09:36:14;;;;;;;13.90;8.98;;;14.80;99.90;;;;;;5030723;28;20196;-76
2022/04/20 09:39:02;;;;;;;9.57;8.68;;;15.00;99.90;;;;;;5033594;28;20218;-76
2022/04/20 09:41:29;;;;;;;11.35;8.30;;;15.30;99.90;;;;;;5036209;28;20203;-75
2022/04/20 09:44:09;;;;;;;8.93;7.93;;;15.40;99.90;;;;;;5047309;23;20226;-77
2022/04/20 09:49:39;;;;;;;10.68;9.27;;;15.60;99.90;;;;;;5034195;28;20644;-75
2022/04/20 09:52:10;;;;;;;9.88;8.90;;;15.80;99.90;;;;;;5031078;28;20223;-76
2022/04/20 09:54:38;;;;;;;9.57;8.65;;;15.80;99.90;;;;;;5024181;28;20276;-77
2022/04/20 09:57:12;;;;;;;9.75;8.77;;;16.10;99.90;;;;;;5024787;28;20781;-76
2022/04/20 09:59:56;;;;;;;10.93;8.80;;;16.10;99.90;;;;;;5030730;28;20291;-78
2022/04/20 10:02:23;;;;;;;8.73;7.82;;;16.10;99.90;;;;;;5032729;28;20246;-75
2022/04/20 10:04:52;;;;;;;11.52;9.40;;;16.30;99.90;;;;;;5031185;28;20219;-77
2022/04/20 10:07:19;;;;;;;10.65;9.63;;;16.40;99.90;;;;;;5029358;28;20243;-74
2022/04/20 10:09:46;;;;;;;10.07;8.80;;;16.20;99.90;;;;;;5034825;28;20223;-78
2022/04/20 10:12:16;;;;;;;9.55;8.55;;;16.10;99.90;;;;;;5037185;28;20339;-76
2022/04/20 10:17:37;;;;;;;9.20;8.10;;;16.30;99.90;;;;;;5042337;28;20345;-77
2022/04/20 10:20:07;;;;;;;9.00;8.10;;;16.40;99.90;;;;;;5058644;28;20701;-74
2022/04/20 10:22:34;;;;;;;8.25;7.45;;;16.30;99.90;;;;;;5055984;28;20222;-77
2022/04/20 10:25:03;;;;;;;10.80;7.85;;;16.30;99.90;;;;;;5057884;28;20206;-78
2022/04/20 10:27:38;;;;;;;10.57;9.32;;;16.40;99.90;;;;;;5057999;28;20226;-77
2022/04/20 10:30:11;;;;;;;11.55;9.25;;;16.30;99.90;;;;;;5059932;28;20208;-77
2022/04/20 10:32:49;;;;;;;10.50;8.52;;;16.20;99.90;;;;;;5057412;28;20230;-78
2022/04/20 10:35:18;;;;;;;10.73;9.52;;;16.30;99.90;;;;;;5058856;28;20241;-79
2022/04/20 10:38:07;;;;;;;14.82;9.10;;;16.30;99.90;;;;;;5061669;28;20229;-77
2022/04/20 10:40:35;;;;;;;12.25;8.65;;;16.40;99.90;;;;;;5054100;28;20206;-76
2022/04/20 10:43:22;;;;;;;9.57;8.63;;;16.40;99.90;;;;;;5055399;28;20226;-78
2022/04/20 10:46:15;;;;;;;12.73;9.10;;;16.50;99.90;;;;;;5057252;28;20229;-74
2022/04/20 10:48:48;;;;;;;9.73;8.80;;;16.20;99.90;;;;;;5040087;28;21863;-75
2022/04/20 10:51:17;;;;;;;10.25;9.00;;;15.50;99.90;;;;;;5055056;28;20203;-75
2022/04/20 10:53:46;;;;;;;10.60;8.52;;;15.80;99.90;;;;;;5056368;28;20317;-79
2022/04/20 10:56:13;;;;;;;9.25;8.32;;;16.00;99.90;;;;;;5057551;28;20483;-76
2022/04/20 10:59:06;;;;;;;10.32;9.10;;;16.20;99.90;;;;;;5056578;28;20528;-77
2022/04/20 11:02:03;;;;;;;9.77;8.43;;;16.60;99.90;;;;;;5054860;28;20234;-77
2022/04/20 11:04:33;;;;;;;9.30;8.27;;;16.70;99.90;;;;;;5056750;28;20320;-74
2022/04/20 11:07:30;;;;;;;8.52;7.72;;;16.80;99.90;;;;;;5054411;28;20761;-77
2022/04/20 11:09:59;;;;;;;10.32;8.13;;;16.30;99.90;;;;;;5052349;28;20189;-74
2022/04/20 11:21:16;;;;;;;9.38;8.48;;;16.50;99.90;;;;;;5054485;28;20219;-76
2022/04/20 11:24:09;;;;;;;9.88;8.88;;;16.50;99.90;;;;;;5054812;28;20322;-77
2022/04/20 11:26:38;;;;;;;9.65;8.60;;;16.40;99.90;;;;;;5059597;28;20287;-76
2022/04/20 11:29:11;;;;;;;9.05;8.20;;;16.30;99.90;;;;;;5063204;28;20302;-76
2022/04/20 11:31:40;;;;;;;8.20;7.40;;;16.50;99.90;;;;;;5056227;28;20311;-76
2022/04/20 11:34:07;;;;;;;10.25;7.97;;;16.40;99.90;;;;;;5055162;28;20226;-77
2022/04/20 11:36:38;;;;;;;9.75;7.60;;;16.60;99.90;;;;;;5057644;28;20198;-75
2022/04/20 11:39:05;;;;;;;10.23;8.55;;;16.60;99.90;;;;;;5056062;28;20259;-78
2022/04/20 11:41:35;;;;;;;7.85;7.15;;;16.70;99.90;;;;;;5054909;28;20612;-76
2022/04/20 11:44:03;;;;;;;10.07;8.02;;;16.70;99.90;;;;;;5057495;28;20233;-78
2022/04/20 11:46:34;;;;;;;9.40;8.00;;;16.70;99.90;;;;;;5056270;28;20199;-76
2022/04/20 11:49:01;;;;;;;8.60;7.68;;;16.70;99.90;;;;;;5061682;28;20214;-77
2022/04/20 11:51:31;;;;;;;8.15;7.45;;;16.80;99.90;;;;;;5056951;28;20568;-76
2022/04/20 11:53:58;;;;;;;9.02;8.23;;;17.00;99.90;;;;;;5050628;28;20225;-77
2022/04/20 11:56:41;;;;;;;8.50;7.60;;;17.10;99.90;;;;;;5053428;28;20230;-77
2022/04/20 11:59:09;;;;;;;9.32;8.38;;;16.90;99.90;;;;;;5054261;28;20279;-76
2022/04/20 12:01:38;;;;;;;7.40;6.70;;;16.80;99.90;;;;;;5058007;28;20533;-78
2022/04/20 12:04:12;;;;;;;9.18;8.20;;;16.80;99.90;;;;;;5056113;28;20511;-76
2022/04/20 12:06:46;;;;;;;9.50;8.52;;;17.00;99.90;;;;;;5057568;28;20235;-77
2022/04/20 12:09:13;;;;;;;9.38;8.57;;;16.90;99.90;;;;;;5058440;28;20246;-74
2022/04/20 12:11:43;;;;;;;9.13;8.23;;;16.90;99.90;;;;;;5053947;28;20221;-76
2022/04/20 12:14:11;;;;;;;8.63;7.93;;;16.90;99.90;;;;;;5054707;28;20229;-76
2022/04/20 12:16:40;;;;;;;11.20;8.18;;;16.90;99.90;;;;;;5053006;28;20249;-79
2022/04/20 12:19:08;;;;;;;10.20;8.93;;;16.90;99.90;;;;;;5051734;28;20234;-73
2022/04/20 12:21:46;;;;;;;9.90;8.82;;;16.80;99.90;;;;;;5058556;28;20661;-77
2022/04/20 12:24:20;;;;;;;9.70;7.78;;;16.60;99.90;;;;;;5055371;28;20229;-74
2022/04/20 12:26:49;;;;;;;9.32;7.82;;;16.70;99.90;;;;;;5057655;28;20186;-76
2022/04/20 12:29:20;;;;;;;9.15;8.35;;;16.60;99.90;;;;;;5055076;28;20236;-75
2022/04/20 12:31:50;;;;;;;9.10;8.20;;;16.60;99.90;;;;;;5058628;28;20194;-77
2022/04/20 12:34:19;;;;;;;9.02;8.13;;;16.30;99.90;;;;;;5054512;28;20222;-76
2022/04/20 12:36:55;;;;;;;11.93;8.27;;;16.20;99.90;;;;;;5056086;28;20190;-75
2022/04/20 12:39:27;;;;;;;10.50;7.57;;;16.40;99.90;;;;;;5052185;28;20246;-74
2022/04/20 12:41:56;;;;;;;8.95;7.63;;;16.30;99.90;;;;;;5057376;28;20202;-78
2022/04/20 12:44:40;;;;;;;8.70;7.47;;;16.30;99.90;;;;;;5059898;28;20605;-78
2022/04/20 12:47:35;;;;;;;14.63;8.07;;;16.40;99.90;;;;;;5057488;28;20230;-76
2022/04/20 12:50:25;;;;;;;8.80;7.72;;;16.30;99.30;;;;;;5058780;28;20597;-77
2022/04/20 12:52:54;;;;;;;8.88;7.97;;;16.30;99.90;;;;;;5054165;28;20267;-73
2022/04/20 12:55:21;;;;;;;9.20;7.45;;;16.30;99.40;;;;;;5059445;28;20222;-79
2022/04/20 13:03:39;;;;;;;13.80;7.97;;;16.30;99.10;;;;;;5055950;28;20229;-76
2022/04/20 13:06:11;;;;;;;9.15;8.13;;;16.40;99.00;;;;;;5059486;28;20304;-76
2022/04/20 13:08:39;;;;;;;18.08;8.60;;;16.40;99.30;;;;;;5057412;28;21299;-76
2022/04/20 13:11:06;;;;;;;9.13;8.13;;;16.20;99.50;;;;;;5054912;28;20213;-75
2022/04/20 13:13:35;;;;;;;10.30;7.90;;;16.00;99.50;;;;;;5054888;28;20346;-74
2022/04/20 13:16:03;;;;;;;8.35;7.53;;;16.00;99.30;;;;;;5054688;28;20206;-76
2022/04/20 13:18:30;;;;;;;8.90;8.02;;;16.00;99.10;;;;;;5056521;28;20750;-76
2022/04/20 13:20:57;;;;;;;13.75;7.22;;;16.00;99.30;;;;;;5057743;28;20225;-75
2022/04/20 13:23:24;;;;;;;8.52;7.05;;;15.90;99.40;;;;;;5058396;28;20220;-78
2022/04/20 13:28:37;;;;;;;11.55;7.38;;;16.00;98.70;;;;;;5055454;28;20708;-79
2022/04/20 13:31:04;;;;;;;7.97;6.88;;;16.00;98.30;;;;;;5059987;28;20201;-78
2022/04/20 13:33:31;;;;;;;8.00;7.18;;;16.00;98.60;;;;;;5057293;28;20367;-77
2022/04/20 13:36:00;;;;;;;7.38;6.50;;;16.00;98.80;;;;;;5058636;28;20234;-74
2022/04/20 13:38:28;;;;;;;10.13;6.30;;;16.10;99.00;;;;;;5054687;28;20733;-76